createdAt,value
2024-01-24T00:02:09.680Z,6.71
2024-01-24T00:04:40.195Z,6.70
2024-01-24T00:07:10.898Z,6.70
2024-01-24T00:09:41.589Z,6.68
2024-01-24T00:12:15.090Z,6.69
2024-01-24T00:14:45.794Z,6.63
2024-01-24T00:17:16.634Z,6.62
2024-01-24T00:19:47.403Z,6.66
2024-01-24T00:22:18.161Z,6.68
2024-01-24T00:24:48.948Z,6.67
2024-01-24T00:27:22.252Z,6.70
2024-01-24T00:29:53.853Z,6.72
2024-01-24T00:32:24.393Z,6.66
2024-01-24T00:34:55.086Z,6.61
2024-01-24T00:37:25.682Z,6.62
2024-01-24T00:39:56.268Z,6.67
2024-01-24T00:42:29.502Z,6.67
2024-01-24T00:45:00.093Z,6.65
2024-01-24T00:47:30.789Z,6.59
2024-01-24T00:50:01.542Z,6.60
2024-01-24T00:52:32.144Z,6.62
2024-01-24T00:55:02.926Z,6.64
2024-01-24T00:57:36.262Z,6.65
2024-01-24T01:00:08.577Z,6.65
2024-01-24T01:02:40.873Z,6.64
2024-01-24T01:05:12.100Z,6.65
2024-01-24T01:07:42.651Z,6.66
2024-01-24T01:10:14.101Z,6.66
2024-01-24T01:12:47.280Z,6.70
2024-01-24T01:15:19.728Z,6.70
2024-01-24T01:17:50.393Z,6.71
2024-01-24T01:20:22.055Z,6.70
2024-01-24T01:22:53.133Z,6.72
2024-01-24T01:25:26.510Z,6.72
2024-01-24T01:27:59.853Z,6.72
2024-01-24T01:30:32.719Z,6.67
2024-01-24T01:33:08.246Z,6.72
2024-01-24T01:35:44.651Z,6.79
2024-01-24T01:38:18.466Z,6.77
2024-01-24T01:40:49.236Z,6.80
2024-01-24T01:43:25.611Z,6.85
2024-01-24T01:46:05.943Z,6.90
2024-01-24T01:48:38.892Z,6.91
2024-01-24T01:51:11.094Z,6.93
2024-01-24T01:53:44.851Z,6.98
2024-01-24T01:56:20.197Z,7.00
2024-01-24T01:58:56.420Z,7.00
2024-01-24T02:01:27.431Z,7.04
2024-01-24T02:03:59.845Z,7.05
2024-01-24T02:06:30.831Z,7.07
2024-01-24T02:09:01.853Z,7.16
2024-01-24T02:11:34.111Z,7.19
2024-01-24T02:14:08.680Z,7.21
2024-01-24T02:16:39.225Z,7.27
2024-01-24T02:19:12.326Z,7.30
2024-01-24T02:21:43.104Z,7.37
2024-01-24T02:24:16.824Z,7.42
2024-01-24T02:26:49.140Z,7.45
2024-01-24T02:29:21.809Z,7.47
2024-01-24T02:31:57.888Z,7.50
2024-01-24T02:34:28.678Z,7.51
2024-01-24T02:37:03.985Z,7.58
2024-01-24T02:39:37.505Z,7.66
2024-01-24T02:42:11.201Z,7.67
2024-01-24T02:44:42.029Z,7.67
2024-01-24T02:47:13.276Z,7.73
2024-01-24T02:49:46.893Z,7.80
2024-01-24T02:52:20.410Z,7.75
2024-01-24T02:54:53.662Z,7.77
2024-01-24T02:57:24.419Z,7.82
2024-01-24T02:59:55.085Z,7.81
2024-01-24T03:02:27.126Z,7.85
2024-01-24T03:05:01.410Z,7.93
2024-01-24T03:07:35.890Z,7.99
2024-01-24T03:10:13.152Z,7.99
2024-01-24T03:12:51.115Z,8.04
2024-01-24T03:15:21.900Z,8.12
2024-01-24T03:17:53.196Z,8.21
2024-01-24T03:20:24.029Z,8.25
2024-01-24T03:22:56.395Z,8.34
2024-01-24T03:25:35.313Z,8.35
2024-01-24T03:28:13.091Z,8.35
2024-01-24T03:30:43.708Z,8.37
2024-01-24T03:33:14.778Z,8.35
2024-01-24T03:35:45.506Z,8.40
2024-01-24T03:38:19.056Z,8.41
2024-01-24T03:40:54.810Z,8.46
2024-01-24T03:43:25.937Z,8.45
2024-01-24T03:45:56.479Z,8.50
2024-01-24T03:48:29.044Z,8.56
2024-01-24T03:50:59.626Z,8.60
2024-01-24T03:53:30.524Z,8.69
2024-01-24T03:56:03.756Z,8.73
2024-01-24T03:58:34.484Z,8.77
2024-01-24T04:01:05.134Z,8.78
2024-01-24T04:03:35.900Z,8.80
2024-01-24T04:06:07.057Z,8.84
2024-01-24T04:08:37.390Z,8.83
2024-01-24T04:11:10.553Z,8.86
2024-01-24T04:13:41.044Z,8.91
2024-01-24T04:16:11.672Z,8.94
2024-01-24T04:18:42.307Z,8.96
2024-01-24T04:21:12.974Z,9.00
2024-01-24T04:23:43.524Z,9.01
2024-01-24T04:26:17.558Z,9.06
2024-01-24T04:28:48.071Z,9.08
2024-01-24T04:31:18.935Z,9.10
2024-01-24T04:33:49.695Z,9.17
2024-01-24T04:36:20.381Z,9.25
2024-01-24T04:38:50.977Z,9.28
2024-01-24T04:41:24.319Z,9.27
2024-01-24T04:43:55.021Z,9.27
2024-01-24T04:46:25.613Z,9.29
2024-01-24T04:48:56.348Z,9.35
2024-01-24T04:51:27.271Z,9.41
2024-01-24T04:53:57.943Z,9.49
2024-01-24T04:56:31.270Z,9.53
2024-01-24T04:59:01.827Z,9.60
2024-01-24T05:01:32.459Z,9.63
2024-01-24T05:04:03.184Z,9.66
2024-01-24T05:06:33.994Z,9.62
2024-01-24T05:09:05.875Z,9.64
2024-01-24T05:11:39.144Z,9.68
2024-01-24T05:14:09.588Z,9.74
2024-01-24T05:16:44.898Z,9.74
2024-01-24T05:19:15.440Z,9.76
2024-01-24T05:21:46.470Z,9.83
2024-01-24T05:24:17.076Z,9.85
2024-01-24T05:26:50.433Z,9.89
2024-01-24T05:29:20.982Z,9.94
2024-01-24T05:31:51.718Z,10.02
2024-01-24T05:34:22.558Z,10.07
2024-01-24T05:36:55.080Z,10.09
2024-01-24T05:39:26.286Z,10.14
2024-01-24T05:41:59.596Z,10.17
2024-01-24T05:44:30.116Z,10.20
2024-01-24T05:47:01.010Z,10.26
2024-01-24T05:49:31.630Z,10.31
2024-01-24T05:52:02.260Z,10.34
2024-01-24T05:54:32.984Z,10.41
2024-01-24T05:57:06.591Z,10.44
2024-01-24T05:59:37.194Z,10.47
2024-01-24T06:02:08.352Z,10.48
2024-01-24T06:04:38.721Z,10.55
2024-01-24T06:07:10.916Z,10.56
2024-01-24T06:09:41.582Z,10.53
2024-01-24T06:12:14.913Z,10.56
2024-01-24T06:14:45.396Z,10.56
2024-01-24T06:17:15.969Z,10.60
2024-01-24T06:19:46.735Z,10.62
2024-01-24T06:22:17.368Z,10.60
2024-01-24T06:24:48.970Z,10.64
2024-01-24T06:27:22.888Z,10.63
2024-01-24T06:30:17.444Z,10.62
2024-01-24T06:32:44.336Z,10.62
2024-01-24T06:35:15.142Z,10.62
2024-01-24T06:37:45.681Z,10.63
2024-01-24T06:40:16.972Z,10.65
2024-01-24T06:42:50.009Z,10.67
2024-01-24T06:45:21.212Z,10.70
2024-01-24T06:47:52.194Z,10.75
2024-01-24T06:50:22.798Z,10.71
2024-01-24T06:52:53.446Z,10.69
2024-01-24T06:55:25.494Z,10.69
2024-01-24T06:57:58.730Z,10.69
2024-01-24T07:00:31.356Z,10.70
2024-01-24T07:03:02.691Z,10.68
2024-01-24T07:05:33.330Z,10.63
2024-01-24T07:08:04.013Z,10.55
2024-01-24T07:10:34.988Z,10.54
2024-01-24T07:13:08.597Z,10.58
2024-01-24T07:15:39.168Z,10.61
2024-01-24T07:18:10.904Z,10.62
2024-01-24T07:20:42.428Z,10.57
2024-01-24T07:23:12.992Z,10.56
2024-01-24T07:25:43.497Z,10.57
2024-01-24T07:28:16.803Z,10.61
2024-01-24T07:30:48.048Z,10.65
2024-01-24T07:33:19.415Z,10.70
2024-01-24T07:35:51.116Z,10.67
2024-01-24T07:38:22.445Z,10.67
2024-01-24T07:40:53.000Z,10.77
2024-01-24T07:43:26.281Z,10.84
2024-01-24T07:45:57.177Z,10.99
2024-01-24T07:48:27.946Z,11.06
2024-01-24T07:50:58.627Z,11.12
2024-01-24T07:53:29.156Z,11.13
2024-01-24T07:56:10.844Z,11.14
2024-01-24T07:58:52.586Z,11.19
2024-01-24T08:01:23.506Z,11.33
2024-01-24T08:03:54.194Z,11.35
2024-01-24T08:06:25.260Z,11.50
2024-01-24T08:08:55.677Z,11.54
2024-01-24T08:11:26.532Z,11.59
2024-01-24T08:13:59.832Z,11.54
2024-01-24T08:16:30.615Z,11.51
2024-01-24T08:19:02.384Z,11.52
2024-01-24T08:21:33.756Z,11.54
2024-01-24T08:24:04.340Z,11.52
2024-01-24T08:26:34.937Z,11.50
2024-01-24T08:29:09.356Z,11.48
2024-01-24T08:31:41.248Z,11.44
2024-01-24T08:34:12.089Z,11.29
2024-01-24T08:36:42.766Z,11.21
2024-01-24T08:39:14.975Z,11.23
2024-01-24T08:41:45.678Z,11.37
2024-01-24T08:44:19.076Z,11.36
2024-01-24T08:46:50.349Z,11.31
2024-01-24T08:49:21.351Z,11.32
2024-01-24T08:51:52.688Z,11.29
2024-01-24T08:54:23.847Z,11.30
2024-01-24T08:56:55.257Z,11.32
2024-01-24T08:59:29.107Z,11.34
2024-01-24T09:02:02.764Z,11.37
2024-01-24T09:04:33.708Z,11.54
2024-01-24T09:07:05.989Z,11.59
2024-01-24T09:09:40.019Z,11.58
2024-01-24T09:12:13.243Z,11.46
2024-01-24T09:14:46.740Z,11.42
2024-01-24T09:17:19.087Z,11.28
2024-01-24T09:19:51.740Z,11.25
2024-01-24T09:22:22.554Z,11.20
2024-01-24T09:24:58.981Z,11.25
2024-01-24T09:27:29.849Z,11.32
2024-01-24T09:30:03.043Z,11.51
2024-01-24T09:32:33.633Z,11.56
2024-01-24T09:35:08.621Z,11.56
2024-01-24T09:37:39.455Z,11.69
2024-01-24T09:40:17.871Z,11.66
2024-01-24T09:42:49.094Z,11.69
2024-01-24T09:45:26.365Z,11.86
2024-01-24T09:47:59.376Z,12.02
2024-01-24T09:50:30.540Z,12.05
2024-01-24T09:53:02.284Z,11.99
2024-01-24T09:55:34.281Z,11.96
2024-01-24T09:58:08.032Z,12.01
2024-01-24T10:00:44.234Z,12.17
2024-01-24T10:03:16.314Z,12.26
2024-01-24T10:05:49.486Z,12.26
2024-01-24T10:08:20.675Z,12.31
2024-01-24T10:10:51.356Z,12.30
2024-01-24T10:13:22.205Z,12.37
2024-01-24T10:15:57.356Z,12.63
2024-01-24T10:18:29.009Z,12.51
2024-01-24T10:20:59.821Z,12.43
2024-01-24T10:23:30.561Z,12.31
2024-01-24T10:26:01.402Z,12.19
2024-01-24T10:28:32.048Z,12.14
2024-01-24T10:31:06.068Z,12.10
2024-01-24T10:33:37.263Z,12.07
2024-01-24T10:36:14.597Z,12.06
2024-01-24T10:38:53.267Z,12.16
2024-01-24T10:41:27.145Z,12.19
2024-01-24T10:44:01.914Z,12.20
2024-01-24T10:46:37.979Z,12.20
2024-01-24T10:49:09.567Z,12.15
2024-01-24T10:51:40.242Z,12.12
2024-01-24T10:54:11.764Z,12.18
2024-01-24T10:56:44.310Z,12.22
2024-01-24T10:59:17.921Z,12.19
2024-01-24T11:01:51.271Z,12.23
2024-01-24T11:04:26.082Z,12.28
2024-01-24T11:07:01.333Z,12.55
2024-01-24T11:09:41.150Z,12.94
2024-01-24T11:12:12.395Z,13.36
2024-01-24T11:14:50.722Z,13.25
2024-01-24T11:17:25.319Z,13.05
2024-01-24T11:19:56.244Z,12.73
2024-01-24T11:22:30.811Z,12.43
2024-01-24T11:25:02.701Z,12.19
2024-01-24T11:27:38.152Z,11.95
2024-01-24T11:30:23.132Z,11.78
2024-01-24T11:33:06.738Z,11.64
2024-01-24T11:35:40.242Z,11.67
2024-01-24T11:38:37.959Z,11.97
2024-01-24T11:41:28.019Z,12.26
2024-01-24T11:43:57.277Z,12.27
2024-01-24T11:46:28.724Z,12.17
2024-01-24T11:49:10.073Z,12.11
2024-01-24T11:51:40.721Z,11.99
2024-01-24T11:54:11.589Z,11.98
2024-01-24T11:56:42.160Z,11.94
2024-01-24T11:59:12.705Z,11.89
2024-01-24T12:01:43.442Z,11.84
2024-01-24T12:04:17.293Z,11.82
2024-01-24T12:06:49.108Z,11.80
2024-01-24T12:09:19.893Z,11.76
2024-01-24T12:11:50.749Z,11.83
2024-01-24T12:14:22.153Z,12.41
2024-01-24T12:16:53.744Z,12.39
2024-01-24T12:19:27.500Z,12.22
2024-01-24T12:21:59.015Z,12.42
2024-01-24T12:24:30.849Z,12.29
2024-01-24T12:27:04.705Z,12.06
2024-01-24T12:29:35.773Z,11.98
2024-01-24T12:32:09.789Z,11.90
2024-01-24T12:34:43.407Z,12.02
2024-01-24T12:37:14.352Z,12.31
2024-01-24T12:39:46.925Z,12.21
2024-01-24T12:42:17.725Z,12.08
2024-01-24T12:44:48.632Z,11.85
2024-01-24T12:47:19.931Z,11.76
2024-01-24T12:49:53.357Z,11.56
2024-01-24T12:52:24.268Z,11.44
2024-01-24T12:54:55.117Z,11.40
2024-01-24T12:57:29.640Z,11.35
2024-01-24T13:00:02.248Z,11.04
2024-01-24T13:02:32.924Z,10.88
2024-01-24T13:05:06.347Z,10.79
2024-01-24T13:07:38.194Z,10.89
2024-01-24T13:10:10.598Z,10.98
2024-01-24T13:12:41.566Z,11.06
2024-01-24T13:15:13.469Z,11.05
2024-01-24T13:17:44.071Z,13.86
2024-01-24T13:20:17.611Z,15.37
2024-01-24T13:22:48.627Z,16.70
2024-01-24T13:25:19.408Z,17.48
2024-01-24T13:27:50.435Z,17.43
2024-01-24T13:30:20.732Z,17.25
2024-01-24T13:32:51.294Z,16.86
2024-01-24T13:35:24.709Z,15.61
2024-01-24T13:37:55.995Z,14.93
2024-01-24T13:40:26.665Z,14.10
2024-01-24T13:42:57.445Z,13.67
2024-01-24T13:45:28.067Z,13.15
2024-01-24T13:47:58.813Z,12.78
2024-01-24T13:50:32.465Z,12.24
2024-01-24T13:53:03.455Z,12.06
2024-01-24T13:55:34.497Z,11.93
2024-01-24T13:58:05.604Z,12.03
2024-01-24T14:00:36.410Z,12.04
2024-01-24T14:03:08.596Z,12.01
2024-01-24T14:05:42.133Z,12.02
2024-01-24T14:08:12.853Z,12.07
2024-01-24T14:10:43.504Z,11.92
2024-01-24T14:13:16.385Z,11.83
2024-01-24T14:15:47.735Z,11.68
2024-01-24T14:18:18.569Z,11.52
2024-01-24T14:20:52.358Z,11.60
2024-01-24T14:23:23.880Z,11.68
2024-01-24T14:25:54.570Z,11.76
2024-01-24T14:28:25.147Z,11.80
2024-01-24T14:30:55.987Z,11.78
2024-01-24T14:33:33.836Z,11.77
2024-01-24T14:36:09.089Z,11.61
2024-01-24T14:38:39.690Z,11.55
2024-01-24T14:41:10.209Z,11.51
2024-01-24T14:43:40.736Z,11.52
2024-01-24T14:46:11.373Z,11.52
2024-01-24T14:48:42.043Z,11.48
2024-01-24T14:51:15.241Z,11.54
2024-01-24T14:53:45.775Z,11.46
2024-01-24T14:56:16.363Z,11.50
2024-01-24T14:58:47.928Z,11.32
2024-01-24T15:01:21.969Z,11.28
2024-01-24T15:03:53.613Z,11.25
2024-01-24T15:06:26.955Z,11.17
2024-01-24T15:08:57.774Z,11.15
2024-01-24T15:11:28.406Z,11.16
2024-01-24T15:13:59.006Z,11.13
2024-01-24T15:16:30.079Z,11.15
2024-01-24T15:19:00.976Z,11.04
2024-01-24T15:21:34.647Z,10.99
2024-01-24T15:24:07.503Z,10.92
2024-01-24T15:26:38.143Z,10.86
2024-01-24T15:29:08.653Z,10.90
2024-01-24T15:31:39.298Z,10.92
2024-01-24T15:34:11.664Z,10.94
2024-01-24T15:36:45.909Z,10.94
2024-01-24T15:39:17.462Z,10.96
2024-01-24T15:41:49.037Z,11.01
2024-01-24T15:44:19.797Z,11.01
2024-01-24T15:46:50.385Z,10.98
2024-01-24T15:49:21.279Z,10.92
2024-01-24T15:51:54.882Z,10.84
2024-01-24T15:54:25.500Z,10.86
2024-01-24T15:56:56.173Z,10.92
2024-01-24T15:59:26.895Z,10.86
2024-01-24T16:01:57.595Z,10.82
2024-01-24T16:04:28.648Z,10.88
2024-01-24T16:07:02.346Z,10.78
2024-01-24T16:09:33.176Z,10.65
2024-01-24T16:12:04.699Z,10.47
2024-01-24T16:14:36.370Z,10.35
2024-01-24T16:17:08.525Z,10.26
2024-01-24T16:19:41.195Z,10.21
2024-01-24T16:22:14.376Z,10.20
2024-01-24T16:24:45.223Z,10.19
2024-01-24T16:27:15.931Z,10.25
2024-01-24T16:29:46.644Z,10.21
2024-01-24T16:32:17.358Z,10.16
2024-01-24T16:34:49.465Z,10.21
2024-01-24T16:37:22.735Z,10.28
2024-01-24T16:39:50.742Z,10.34
2024-01-24T16:42:21.612Z,10.35
2024-01-24T16:44:52.217Z,10.38
2024-01-24T16:47:24.418Z,10.38
2024-01-24T16:49:55.437Z,10.40
2024-01-24T16:52:28.413Z,10.43
2024-01-24T16:54:59.010Z,10.47
2024-01-24T16:57:29.673Z,10.47
2024-01-24T17:00:00.856Z,10.39
2024-01-24T17:02:38.336Z,10.42
2024-01-24T17:05:14.798Z,10.43
2024-01-24T17:07:48.001Z,10.48
2024-01-24T17:10:18.621Z,10.41
2024-01-24T17:12:49.286Z,10.41
2024-01-24T17:15:20.225Z,10.41
2024-01-24T17:17:50.857Z,10.27
2024-01-24T17:20:21.546Z,10.26
2024-01-24T17:22:54.775Z,10.33
2024-01-24T17:25:25.264Z,10.34
2024-01-24T17:27:56.679Z,10.37
2024-01-24T17:30:27.413Z,10.34
2024-01-24T17:32:58.861Z,10.38
2024-01-24T17:35:29.445Z,10.40
2024-01-24T17:38:03.013Z,10.31
2024-01-24T17:40:34.569Z,10.41
2024-01-24T17:43:05.348Z,10.34
2024-01-24T17:45:36.772Z,10.36
2024-01-24T17:48:09.308Z,10.38
2024-01-24T17:50:40.560Z,10.40
2024-01-24T17:53:15.019Z,10.37
2024-01-24T17:55:47.339Z,10.38
2024-01-24T17:58:17.980Z,10.26
2024-01-24T18:00:49.124Z,10.24
2024-01-24T18:03:20.024Z,10.36
2024-01-24T18:05:50.642Z,10.37
2024-01-24T18:08:23.429Z,10.36
2024-01-24T18:10:55.247Z,10.35
2024-01-24T18:13:27.395Z,10.32
2024-01-24T18:15:58.266Z,10.27
2024-01-24T18:18:29.885Z,10.27
2024-01-24T18:21:00.566Z,10.30
2024-01-24T18:23:33.776Z,10.26
2024-01-24T18:26:04.306Z,10.27
2024-01-24T18:28:34.973Z,10.25
2024-01-24T18:31:05.657Z,10.26
2024-01-24T18:33:36.535Z,10.26
2024-01-24T18:36:10.974Z,10.23
2024-01-24T18:38:44.680Z,10.22
2024-01-24T18:41:20.050Z,10.18
2024-01-24T18:43:53.046Z,10.26
2024-01-24T18:46:26.721Z,10.24
2024-01-24T18:48:58.836Z,10.23
2024-01-24T18:51:30.893Z,10.24
2024-01-24T18:54:04.283Z,10.22
2024-01-24T18:56:34.914Z,10.16
2024-01-24T18:59:05.644Z,10.20
2024-01-24T19:01:36.542Z,10.20
2024-01-24T19:04:07.876Z,10.17
2024-01-24T19:06:39.721Z,10.23
2024-01-24T19:09:13.163Z,10.17
2024-01-24T19:11:43.680Z,10.21
2024-01-24T19:14:14.305Z,10.19
2024-01-24T19:16:45.033Z,10.24
2024-01-24T19:19:15.907Z,10.22
2024-01-24T19:21:47.632Z,10.24
2024-01-24T19:24:20.843Z,10.29
2024-01-24T19:26:51.580Z,10.23
2024-01-24T19:29:23.071Z,10.15
2024-01-24T19:31:54.608Z,10.14
2024-01-24T19:34:25.560Z,10.17
2024-01-24T19:36:57.684Z,10.17
2024-01-24T19:39:30.872Z,10.11
2024-01-24T19:42:01.472Z,10.17
2024-01-24T19:44:32.602Z,10.07
2024-01-24T19:47:03.359Z,10.09
2024-01-24T19:49:35.142Z,10.07
2024-01-24T19:52:05.901Z,10.08
2024-01-24T19:54:40.162Z,10.10
2024-01-24T19:57:10.725Z,10.04
2024-01-24T19:59:41.299Z,9.99
2024-01-24T20:02:11.891Z,10.01
2024-01-24T20:04:45.226Z,10.06
2024-01-24T20:07:17.426Z,10.05
2024-01-24T20:09:52.072Z,10.02
2024-01-24T20:12:23.278Z,10.01
2024-01-24T20:14:57.244Z,10.04
2024-01-24T20:17:28.236Z,10.08
2024-01-24T20:19:59.166Z,10.07
2024-01-24T20:22:30.222Z,10.03
2024-01-24T20:25:03.357Z,10.01
2024-01-24T20:27:34.107Z,10.06
2024-01-24T20:30:05.341Z,10.09
2024-01-24T20:32:42.739Z,10.11
2024-01-24T20:35:19.810Z,10.01
2024-01-24T20:37:50.480Z,10.05
2024-01-24T20:40:24.126Z,9.96
2024-01-24T20:42:55.121Z,9.90
2024-01-24T20:45:25.703Z,9.94
2024-01-24T20:48:00.554Z,9.90
2024-01-24T20:50:34.894Z,9.92
2024-01-24T20:53:08.003Z,9.92
2024-01-24T20:55:41.268Z,9.97
2024-01-24T20:58:11.993Z,9.96
2024-01-24T21:00:42.834Z,9.95
2024-01-24T21:03:17.388Z,9.92
2024-01-24T21:05:49.017Z,9.82
2024-01-24T21:08:20.360Z,9.86
2024-01-24T21:10:59.887Z,9.85
2024-01-24T21:13:33.935Z,9.85
2024-01-24T21:16:04.970Z,9.87
2024-01-24T21:18:35.614Z,9.90
2024-01-24T21:21:06.629Z,9.90
2024-01-24T21:23:42.931Z,9.93
2024-01-24T21:26:16.162Z,9.81
2024-01-24T21:28:46.694Z,9.84
2024-01-24T21:31:17.348Z,9.75
2024-01-24T21:33:48.120Z,9.78
2024-01-24T21:36:24.655Z,9.74
2024-01-24T21:38:58.128Z,9.73
2024-01-24T21:41:31.569Z,9.85
2024-01-24T21:44:04.867Z,9.94
2024-01-24T21:46:35.375Z,10.07
2024-01-24T21:49:10.676Z,10.02
2024-01-24T21:51:41.604Z,10.01
2024-01-24T21:54:25.960Z,9.96
2024-01-24T21:57:10.895Z,9.99
2024-01-24T21:59:41.486Z,10.00
2024-01-24T22:02:12.047Z,10.01
2024-01-24T22:04:42.787Z,10.01
2024-01-24T22:07:13.521Z,9.94
2024-01-24T22:09:46.263Z,9.88
2024-01-24T22:12:27.660Z,9.93
2024-01-24T22:15:03.173Z,9.89
2024-01-24T22:17:36.450Z,9.88
2024-01-24T22:20:07.880Z,9.85
2024-01-24T22:25:18.938Z,9.88
2024-01-24T22:27:52.243Z,9.89
2024-01-24T22:30:22.772Z,9.85
2024-01-24T22:32:53.494Z,9.74
2024-01-24T22:35:29.502Z,9.83
2024-01-24T22:38:05.847Z,9.89
2024-01-24T22:40:46.835Z,9.88
2024-01-24T22:43:21.552Z,9.90
2024-01-24T22:45:54.710Z,9.93
2024-01-24T22:51:13.401Z,9.78
2024-01-24T22:53:44.611Z,9.84
2024-01-24T22:56:15.189Z,9.88
2024-01-24T22:58:48.369Z,9.83
2024-01-24T23:01:19.327Z,9.83
2024-01-24T23:03:50.138Z,9.70
2024-01-24T23:06:21.207Z,9.71
2024-01-24T23:08:51.968Z,9.73
2024-01-24T23:11:22.708Z,9.82
2024-01-24T23:13:55.889Z,9.73
2024-01-24T23:16:26.383Z,9.73
2024-01-24T23:19:00.351Z,9.73
2024-01-24T23:21:30.883Z,9.81
2024-01-24T23:24:02.118Z,9.82
2024-01-24T23:26:32.601Z,9.80
2024-01-24T23:29:05.808Z,9.74
2024-01-24T23:31:36.512Z,9.72
2024-01-24T23:34:07.361Z,9.80
2024-01-24T23:36:38.128Z,9.84
2024-01-24T23:39:08.736Z,9.83
2024-01-24T23:41:42.068Z,9.82
2024-01-24T23:44:15.526Z,9.79
2024-01-24T23:46:46.031Z,9.69
2024-01-24T23:49:17.762Z,9.73
2024-01-24T23:51:48.573Z,9.70
2024-01-24T23:54:19.449Z,9.77
2024-01-24T23:56:49.933Z,9.69
2024-01-24T23:59:23.592Z,9.72
